Aeroporto :
LOGIN :

Iscrizione | Disclaimer

   EN    FR    IT 

 










Sommario :    VFR   VFR Marginale   IFR   IFR Intensivo   IFR Molto Intensivo
Visibilità : 
Base nubi : 
>= 8 km
>= 3000ft
5 / 8 km
1000 / 3000 ft
1500m / 5 km
500 / 1000 ft
800 / 1500m
200 / 500 ft
< 800m
< 200 ft
Simboli :   Temporali  Nebbia  Neve Forte  Precipitazioni Forti  Vento > 20 kt
SIGMETs :   Varie  Temporali  Ghiacco  Turbolenza  Onda orograficha  Ceneri Vulcaniche






- Altitudine del aeroporto : 1910 ft
- Codice IATA : RDZ


LFCR - Rodez

ULTIMO METAR :
  • 271200Z AUTO 29015KT 9999 BKN029 BKN034 BKN040 14/08 Q1013 TEMPO 4000 SHRA BKN012TCU

METARs OBSOLETI :
  • 271130Z AUTO 28016KT 9999 SCT028 BKN039 BKN046 12/06 Q1013 TEMPO 4000 -SHRA SCT025TCU
  • 271100Z AUTO 26015KT 9999 -RA BKN021 BKN027 OVC036 11/08 Q1013 TEMPO 4000 -SHRA SCT025TCU
  • 271030Z AUTO 28013KT 9999 FEW021 BKN040 OVC046 12/07 Q1013 TEMPO 4000 -SHRA SCT025TCU
  • 271000Z AUTO 27015KT 9999 SCT016 BKN039 OVC046 11/08 Q1013 TEMPO 4000 -SHRA SCT025TCU
  • 270930Z AUTO 28012KT 9999 BKN014 BKN021 BKN028 11/08 Q1013 TEMPO 4000 -SHRA SCT025TCU

TAF TAF LFCR
Valido dal 27 a 12 ore il 28 a 12 ore UTC


271100Z 2712/2812 28012KT 9999 SCT020TCU BKN040
TEMPO 2712/2718 4000 SHRA BKN012TCU
BECMG 2718/2720 OVC010
BECMG 2720/2722 4000 -RADZ OVC005
TEMPO 2721/2804 2000 OVC002
BECMG 2803/2805 28018G28KT
BECMG 2809/2811 9999 SCT015TCU SCT040



MetMap, La meteo Aeronautica in un colpo d'occhio ! - Copyright ORBIFLY Dicembre 2007 - Disclaimer

ORBIFLY MET'MAP TEAM :

Programmazione e sviluppo : Alexandra Zaïnal
Concezione : Baudouin d'Aumeries
Supporto tecnico e logistico : Manuel Goepfert
Aiuto : Marc-Olivier Méhu
Aiuto per la traduzione : Arnaldo La Scala




FONTI E CREDITI :

   NOAA